createdAt,value
2018-04-16T00:03:21.852Z,12.10
2018-04-16T00:08:12.727Z,12.10
2018-04-16T00:13:03.617Z,12.10
2018-04-16T00:17:55.255Z,12.00
2018-04-16T00:22:46.136Z,12.00
2018-04-16T00:27:37.034Z,12.00
2018-04-16T00:32:33.982Z,11.90
2018-04-16T00:37:31.179Z,11.80
2018-04-16T00:42:28.266Z,11.80
2018-04-16T00:47:25.385Z,11.70
2018-04-16T00:52:22.415Z,11.70
2018-04-16T00:57:19.579Z,11.70
2018-04-16T01:02:16.661Z,11.60
2018-04-16T01:07:14.792Z,11.50
2018-04-16T01:12:12.574Z,11.50
2018-04-16T01:17:09.631Z,11.50
2018-04-16T01:22:07.503Z,11.50
2018-04-16T01:27:04.470Z,11.40
2018-04-16T01:32:02.376Z,11.40
2018-04-16T01:36:59.475Z,11.40
2018-04-16T01:41:56.593Z,11.30
2018-04-16T01:46:53.620Z,11.30
2018-04-16T01:51:50.752Z,11.30
2018-04-16T01:56:47.880Z,11.30
2018-04-16T02:01:45.111Z,11.30
2018-04-16T02:06:42.218Z,11.20
2018-04-16T02:11:39.357Z,11.20
2018-04-16T02:16:36.380Z,11.20
2018-04-16T02:21:33.428Z,11.20
2018-04-16T02:26:37.625Z,11.20
2018-04-16T02:31:34.630Z,11.10
2018-04-16T02:36:31.628Z,11.10
2018-04-16T02:41:29.460Z,11.10
2018-04-16T02:46:26.631Z,11.00
2018-04-16T02:51:23.713Z,11.10
2018-04-16T02:56:20.937Z,11.00
2018-04-16T03:01:30.707Z,11.00
2018-04-16T03:06:28.488Z,11.00
2018-04-16T03:11:25.630Z,11.00
2018-04-16T03:16:22.824Z,11.00
2018-04-16T03:21:19.936Z,10.90
2018-04-16T03:31:35.576Z,10.90
2018-04-16T03:36:32.651Z,10.90
2018-04-16T03:41:29.697Z,10.90
2018-04-16T03:46:27.039Z,10.90
2018-04-16T03:51:34.804Z,10.90
2018-04-16T03:56:25.713Z,10.90
2018-04-16T04:01:16.642Z,10.90
2018-04-16T04:06:07.516Z,10.80
2018-04-16T04:10:59.164Z,10.80
2018-04-16T04:15:51.543Z,10.80
2018-04-16T04:20:42.455Z,10.80
2018-04-16T04:25:45.859Z,10.80
2018-04-16T04:30:38.609Z,10.80
2018-04-16T04:35:30.264Z,10.80
2018-04-16T04:40:21.155Z,10.80
2018-04-16T04:45:12.084Z,10.80
2018-04-16T04:50:02.976Z,10.80
2018-04-16T04:54:54.627Z,10.80
2018-04-16T04:59:45.542Z,10.70
2018-04-16T05:04:37.185Z,10.80
2018-04-16T05:09:28.093Z,10.70
2018-04-16T05:14:18.988Z,10.80
2018-04-16T05:19:10.623Z,10.70
2018-04-16T05:24:02.265Z,10.70
2018-04-16T05:28:53.900Z,10.70
2018-04-16T05:33:44.787Z,10.70
2018-04-16T05:38:35.680Z,10.70
2018-04-16T05:43:26.573Z,10.70
2018-04-16T05:48:17.467Z,10.70
2018-04-16T05:53:08.359Z,10.70
2018-04-16T05:57:59.265Z,10.70
2018-04-16T06:02:50.955Z,10.70
2018-04-16T06:07:41.852Z,10.60
2018-04-16T06:12:32.759Z,10.70
2018-04-16T06:17:23.648Z,10.70
2018-04-16T06:22:14.548Z,10.70
2018-04-16T06:27:05.448Z,10.70
2018-04-16T06:31:56.416Z,10.70
2018-04-16T06:36:47.312Z,10.80
2018-04-16T06:41:38.216Z,10.80
2018-04-16T06:46:29.858Z,10.90
2018-04-16T06:51:20.764Z,10.90
2018-04-16T06:56:11.728Z,10.90
2018-04-16T07:01:02.656Z,11.00
2018-04-16T07:05:53.568Z,11.00
2018-04-16T07:10:44.467Z,11.00
2018-04-16T07:15:36.192Z,11.00
2018-04-16T07:20:27.097Z,11.00
2018-04-16T07:25:18.000Z,11.10
2018-04-16T07:30:08.905Z,11.10
2018-04-16T07:34:59.805Z,11.10
2018-04-16T07:39:50.889Z,11.10
2018-04-16T07:44:41.791Z,11.20
2018-04-16T07:49:33.427Z,11.20
2018-04-16T07:54:25.082Z,11.30
2018-04-16T07:59:16.711Z,11.30
2018-04-16T08:04:07.615Z,11.30
2018-04-16T08:08:58.503Z,11.40
2018-04-16T08:13:49.407Z,11.40
2018-04-16T08:18:41.043Z,11.50
2018-04-16T08:23:31.950Z,11.50
2018-04-16T08:28:22.851Z,11.60
2018-04-16T08:33:13.767Z,11.60
2018-04-16T08:38:05.388Z,11.70
2018-04-16T08:42:56.286Z,11.70
2018-04-16T08:47:47.184Z,11.80
2018-04-16T08:52:38.098Z,11.80
2018-04-16T08:57:29.732Z,11.90
2018-04-16T09:02:21.371Z,12.00
2018-04-16T09:07:20.055Z,12.00
2018-04-16T09:12:10.951Z,12.00
2018-04-16T09:17:01.839Z,12.10
2018-04-16T09:21:53.459Z,12.30
2018-04-16T09:26:44.355Z,12.30
2018-04-16T09:31:35.260Z,12.40
2018-04-16T09:36:26.891Z,12.60
2018-04-16T09:41:18.515Z,12.70
2018-04-16T09:46:09.418Z,12.70
2018-04-16T09:51:00.326Z,12.80
2018-04-16T09:55:51.274Z,13.00
2018-04-16T10:00:48.348Z,13.10
2018-04-16T10:05:39.236Z,13.20
2018-04-16T10:10:30.182Z,13.30
2018-04-16T10:15:21.884Z,13.60
2018-04-16T10:20:12.793Z,13.60
2018-04-16T10:25:03.696Z,13.70
2018-04-16T10:29:55.332Z,14.00
2018-04-16T10:34:46.977Z,14.10
2018-04-16T10:39:38.611Z,14.30
2018-04-16T10:44:29.541Z,14.20
2018-04-16T10:49:20.435Z,14.40
2018-04-16T10:54:11.319Z,14.60
2018-04-16T10:59:02.233Z,14.70
2018-04-16T11:03:53.131Z,15.00
2018-04-16T11:08:44.024Z,15.30
2018-04-16T11:13:34.934Z,15.60
2018-04-16T11:18:26.571Z,16.30
2018-04-16T11:23:18.211Z,16.70
2018-04-16T11:28:09.122Z,16.70
2018-04-16T11:33:00.020Z,17.00
2018-04-16T11:37:50.940Z,17.40
2018-04-16T11:42:41.845Z,17.60
2018-04-16T11:47:32.732Z,17.80
2018-04-16T11:52:23.730Z,18.00
2018-04-16T11:57:14.619Z,18.10
2018-04-16T12:02:06.263Z,18.10
2018-04-16T12:06:57.967Z,18.10
2018-04-16T12:11:48.864Z,18.10
2018-04-16T12:16:40.556Z,18.00
2018-04-16T12:21:32.154Z,18.00
2018-04-16T12:26:23.062Z,17.90
2018-04-16T12:31:21.099Z,17.90
2018-04-16T12:36:11.992Z,17.80
2018-04-16T12:41:02.882Z,17.80
2018-04-16T12:45:53.779Z,17.70
2018-04-16T12:50:44.671Z,17.60
2018-04-16T12:55:35.643Z,17.50
2018-04-16T13:00:26.539Z,17.40
2018-04-16T13:05:17.431Z,17.30
2018-04-16T13:10:08.327Z,17.30
2018-04-16T13:14:59.226Z,17.20
2018-04-16T13:19:50.863Z,17.10
2018-04-16T13:24:41.764Z,17.10
2018-04-16T13:29:32.676Z,17.00
2018-04-16T13:34:23.578Z,17.00
2018-04-16T13:39:15.215Z,16.90
2018-04-16T13:44:06.919Z,16.80
2018-04-16T13:48:57.823Z,16.80
2018-04-16T13:53:48.711Z,16.70
2018-04-16T13:58:39.614Z,16.60
2018-04-16T14:03:30.515Z,16.50
2018-04-16T14:08:22.171Z,16.40
2018-04-16T14:13:13.076Z,16.40
2018-04-16T14:18:03.968Z,16.30
2018-04-16T14:22:54.860Z,16.30
2018-04-16T14:27:45.762Z,16.20
2018-04-16T14:32:36.669Z,16.10
2018-04-16T14:37:27.563Z,16.00
2018-04-16T14:42:19.412Z,15.80
2018-04-16T14:47:10.303Z,15.80
2018-04-16T14:52:01.195Z,15.70
2018-04-16T14:56:52.826Z,15.60
2018-04-16T15:01:44.459Z,15.50
2018-04-16T15:06:35.347Z,15.50
2018-04-16T15:11:26.239Z,15.50
2018-04-16T15:16:17.874Z,15.40
2018-04-16T15:21:08.773Z,15.40
2018-04-16T15:25:59.667Z,15.30
2018-04-16T15:30:51.307Z,15.20
2018-04-16T15:35:42.231Z,15.20
2018-04-16T15:40:33.123Z,15.20
2018-04-16T15:45:24.025Z,15.10
2018-04-16T15:50:14.925Z,15.10
2018-04-16T15:55:06.567Z,15.00
2018-04-16T15:59:57.467Z,15.00
2018-04-16T16:04:48.365Z,15.00
2018-04-16T16:09:40.015Z,14.90
2018-04-16T16:14:31.656Z,14.90
2018-04-16T16:19:22.547Z,14.90
2018-04-16T16:24:13.439Z,14.90
2018-04-16T16:29:04.344Z,14.80
2018-04-16T16:33:55.223Z,14.80
2018-04-16T16:38:46.855Z,14.70
2018-04-16T16:43:37.735Z,14.70
2018-04-16T16:48:28.627Z,14.70
2018-04-16T16:53:19.525Z,14.70
2018-04-16T16:58:10.437Z,14.60
2018-04-16T17:03:01.331Z,14.60
2018-04-16T17:07:52.974Z,14.50
2018-04-16T17:12:44.616Z,14.50
2018-04-16T17:17:36.243Z,14.40
2018-04-16T17:22:27.889Z,14.40
2018-04-16T17:27:18.783Z,14.30
2018-04-16T17:32:09.691Z,14.30
2018-04-16T17:37:00.580Z,14.30
2018-04-16T17:41:51.491Z,14.20
2018-04-16T17:46:42.402Z,14.20
2018-04-16T17:51:33.310Z,14.10
2018-04-16T17:56:24.199Z,14.10
2018-04-16T18:01:15.115Z,14.00
2018-04-16T18:06:06.012Z,14.00
2018-04-16T18:10:57.021Z,13.90
2018-04-16T18:15:48.843Z,13.80
2018-04-16T18:20:39.740Z,13.80
2018-04-16T18:25:30.659Z,13.80
2018-04-16T18:30:21.547Z,13.70
2018-04-16T18:35:12.455Z,13.70
2018-04-16T18:40:03.388Z,13.60
2018-04-16T18:44:54.330Z,13.50
2018-04-16T18:49:45.232Z,13.50
2018-04-16T18:54:36.123Z,13.40
2018-04-16T18:59:27.025Z,13.40
2018-04-16T19:04:17.991Z,13.30
2018-04-16T19:09:09.638Z,13.10
2018-04-16T19:14:00.531Z,13.10
2018-04-16T19:18:51.437Z,13.00
2018-04-16T19:23:42.500Z,13.00
2018-04-16T19:28:33.402Z,12.90
2018-04-16T19:33:30.393Z,12.80
2018-04-16T19:38:21.323Z,12.70
2018-04-16T19:43:12.219Z,12.70
2018-04-16T19:48:03.858Z,12.50
2018-04-16T19:52:54.762Z,12.50
2018-04-16T19:57:52.010Z,12.50
2018-04-16T20:02:49.875Z,12.30
2018-04-16T20:07:40.796Z,12.30
2018-04-16T20:12:31.709Z,12.20
2018-04-16T20:17:22.600Z,12.20
2018-04-16T20:22:13.499Z,12.10
2018-04-16T20:27:04.435Z,12.10
2018-04-16T20:31:55.327Z,12.00
2018-04-16T20:36:46.992Z,11.90
2018-04-16T20:41:37.879Z,11.90
2018-04-16T20:46:28.785Z,11.80
2018-04-16T20:51:19.683Z,11.80
2018-04-16T20:56:10.580Z,11.70
2018-04-16T21:01:01.467Z,11.70
2018-04-16T21:05:52.378Z,11.60
2018-04-16T21:10:43.297Z,11.60
2018-04-16T21:15:34.199Z,11.50
2018-04-16T21:20:25.835Z,11.40
2018-04-16T21:25:16.752Z,11.30
2018-04-16T21:30:07.647Z,11.30
2018-04-16T21:34:58.554Z,11.20
2018-04-16T21:39:50.195Z,11.10
2018-04-16T21:44:41.845Z,11.00
2018-04-16T21:49:32.741Z,11.00
2018-04-16T21:54:23.639Z,11.00
2018-04-16T21:59:15.289Z,10.80
2018-04-16T22:04:06.940Z,10.80
2018-04-16T22:08:58.589Z,10.70
2018-04-16T22:13:50.223Z,10.70
2018-04-16T22:18:41.131Z,10.60
2018-04-16T22:23:32.036Z,10.60
2018-04-16T22:28:22.940Z,10.50
2018-04-16T22:33:13.836Z,10.50
2018-04-16T22:38:04.743Z,10.50
2018-04-16T22:42:55.643Z,10.40
2018-04-16T22:47:46.543Z,10.40
2018-04-16T22:52:37.440Z,10.30
2018-04-16T22:57:28.331Z,10.30
2018-04-16T23:02:19.267Z,10.20
2018-04-16T23:07:10.164Z,10.20
2018-04-16T23:12:01.067Z,10.20
2018-04-16T23:16:51.977Z,10.10
2018-04-16T23:21:42.887Z,10.10
2018-04-16T23:26:33.797Z,10.10
2018-04-16T23:31:24.711Z,10.00
2018-04-16T23:36:22.756Z,10.00
2018-04-16T23:41:14.414Z,10.00
2018-04-16T23:46:05.315Z,10.00
2018-04-16T23:50:56.970Z,10.00
2018-04-16T23:55:47.881Z,10.00
